createdAt,value
2022-08-22T00:02:03.053Z,25.22
2022-08-22T00:02:43.872Z,26.22
2022-08-22T00:02:56.363Z,26.19
2022-08-22T00:03:03.384Z,26.41
2022-08-22T00:04:39.227Z,25.24
2022-08-22T00:07:26.585Z,25.19
2022-08-22T00:09:57.420Z,25.22
2022-08-22T00:12:32.776Z,25.20
2022-08-22T00:15:09.048Z,25.19
2022-08-22T00:18:01.575Z,25.13
2022-08-22T00:20:41.447Z,25.08
2022-08-22T00:23:18.222Z,25.16
2022-08-22T00:25:53.373Z,25.15
2022-08-22T00:28:26.644Z,25.17
2022-08-22T00:30:54.294Z,25.24
2022-08-22T00:33:27.576Z,25.34
2022-08-22T00:36:02.963Z,25.31
2022-08-22T00:38:41.201Z,25.43
2022-08-22T00:41:27.242Z,25.42
2022-08-22T00:43:57.210Z,25.41
2022-08-22T00:46:24.421Z,25.34
2022-08-22T00:48:57.688Z,25.33
2022-08-22T00:51:45.127Z,25.20
2022-08-22T00:54:17.386Z,25.27
2022-08-22T00:56:48.431Z,25.22
2022-08-22T00:59:30.590Z,25.19
2022-08-22T01:02:11.114Z,25.08
2022-08-22T01:04:49.967Z,25.06
2022-08-22T01:07:20.178Z,25.05
2022-08-22T01:09:50.018Z,24.98
2022-08-22T01:12:30.337Z,25.00
2022-08-22T01:15:03.645Z,25.06
2022-08-22T01:17:30.853Z,25.08
2022-08-22T01:20:00.982Z,25.04
2022-08-22T01:22:47.093Z,25.00
2022-08-22T01:25:33.684Z,24.97
2022-08-22T01:28:19.839Z,24.90
2022-08-22T01:30:50.039Z,24.91
2022-08-22T01:33:29.369Z,24.86
2022-08-22T01:36:03.049Z,24.78
2022-08-22T01:38:30.217Z,24.71
2022-08-22T01:41:17.144Z,24.63
2022-08-22T01:44:03.301Z,24.54
2022-08-22T01:46:36.605Z,24.41
2022-08-22T01:49:19.862Z,24.26
2022-08-22T01:52:02.789Z,24.27
2022-08-22T01:54:45.348Z,24.27
2022-08-22T01:57:13.335Z,24.25
2022-08-22T01:59:46.090Z,24.20
2022-08-22T02:02:13.186Z,24.12
2022-08-22T02:04:46.912Z,24.07
2022-08-22T02:07:20.981Z,24.01
2022-08-22T02:10:08.396Z,23.92
2022-08-22T02:12:35.568Z,23.84
2022-08-22T02:15:14.801Z,23.62
2022-08-22T02:18:01.149Z,23.60
2022-08-22T02:20:47.434Z,23.53
2022-08-22T02:23:21.975Z,23.50
2022-08-22T02:26:01.463Z,23.33
2022-08-22T02:28:28.661Z,23.38
2022-08-22T02:31:02.055Z,23.42
2022-08-22T02:33:36.060Z,23.46
2022-08-22T02:36:14.423Z,23.48
2022-08-22T02:39:01.869Z,23.55
2022-08-22T02:41:50.169Z,23.75
2022-08-22T02:44:20.614Z,23.85
2022-08-22T02:47:06.133Z,23.91
2022-08-22T02:49:36.476Z,23.86
2022-08-22T02:52:21.112Z,23.82
2022-08-22T02:54:48.306Z,23.76
2022-08-22T02:57:39.503Z,23.63
2022-08-22T03:00:27.780Z,23.51
2022-08-22T03:03:00.287Z,23.47
2022-08-22T03:05:27.912Z,23.53
2022-08-22T03:08:08.288Z,23.51
2022-08-22T03:10:40.978Z,23.42
2022-08-22T03:13:08.132Z,23.36
2022-08-22T03:15:52.374Z,23.00
2022-08-22T03:18:22.764Z,23.10
2022-08-22T03:21:09.459Z,23.09
2022-08-22T03:23:44.485Z,22.96
2022-08-22T03:26:17.328Z,22.63
2022-08-22T03:28:59.283Z,22.72
2022-08-22T03:31:28.442Z,22.78
2022-08-22T03:34:13.802Z,22.78
2022-08-22T03:36:45.745Z,22.82
2022-08-22T03:39:22.680Z,22.80
2022-08-22T03:42:12.220Z,22.80
2022-08-22T03:44:54.242Z,22.65
2022-08-22T03:47:30.408Z,22.52
2022-08-22T03:50:09.656Z,22.54
2022-08-22T03:53:02.798Z,22.58
2022-08-22T03:55:49.264Z,22.64
2022-08-22T03:58:42.627Z,22.65
2022-08-22T04:01:19.475Z,22.51
2022-08-22T04:03:46.769Z,22.40
2022-08-22T04:06:21.917Z,22.42
2022-08-22T04:09:12.690Z,22.51
2022-08-22T04:11:53.514Z,22.59
2022-08-22T04:14:29.841Z,22.54
2022-08-22T04:17:15.630Z,22.48
2022-08-22T04:20:01.175Z,22.22
2022-08-22T04:22:46.781Z,22.32
2022-08-22T04:25:20.005Z,22.07
2022-08-22T04:28:17.359Z,22.18
2022-08-22T04:30:47.759Z,22.31
2022-08-22T04:33:22.236Z,22.20
2022-08-22T04:36:01.709Z,22.17
2022-08-22T04:38:44.191Z,22.30
2022-08-22T04:41:13.893Z,22.00
2022-08-22T04:43:50.589Z,22.13
2022-08-22T04:46:33.586Z,22.28
2022-08-22T04:49:12.209Z,22.32
2022-08-22T04:51:46.940Z,22.31
2022-08-22T04:54:32.053Z,22.34
2022-08-22T04:57:15.928Z,22.39
2022-08-22T04:59:43.413Z,22.28
2022-08-22T05:02:11.958Z,22.34
2022-08-22T05:04:42.966Z,22.43
2022-08-22T05:07:10.195Z,22.30
2022-08-22T05:09:39.075Z,22.35
2022-08-22T05:12:09.174Z,22.16
2022-08-22T05:14:44.419Z,22.34
2022-08-22T05:17:15.678Z,22.39
2022-08-22T05:19:47.023Z,22.45
2022-08-22T05:22:18.834Z,22.31
2022-08-22T05:24:48.463Z,22.33
2022-08-22T05:27:21.083Z,22.36
2022-08-22T05:29:50.498Z,22.47
2022-08-22T05:32:29.138Z,22.38
2022-08-22T05:34:59.390Z,22.39
2022-08-22T05:37:48.293Z,22.56
2022-08-22T05:40:19.494Z,22.63
2022-08-22T05:42:47.027Z,22.54
2022-08-22T05:45:14.585Z,22.57
2022-08-22T05:47:45.318Z,22.62
2022-08-22T05:50:15.261Z,22.70
2022-08-22T05:52:46.989Z,22.67
2022-08-22T05:55:23.069Z,22.89
2022-08-22T05:57:53.022Z,22.84
2022-08-22T06:00:25.784Z,22.83
2022-08-22T06:03:02.424Z,22.90
2022-08-22T06:05:32.823Z,22.85
2022-08-22T06:08:07.549Z,22.99
2022-08-22T06:10:42.663Z,23.20
2022-08-22T06:13:13.699Z,23.27
2022-08-22T06:15:51.726Z,23.20
2022-08-22T06:18:21.727Z,23.19
2022-08-22T06:20:52.541Z,23.34
2022-08-22T06:23:25.095Z,23.47
2022-08-22T06:25:54.456Z,23.64
2022-08-22T06:28:23.616Z,23.74
2022-08-22T06:30:52.994Z,23.77
2022-08-22T06:33:27.855Z,23.85
2022-08-22T06:36:45.188Z,24.01
2022-08-22T06:39:26.051Z,24.13
2022-08-22T06:41:57.155Z,24.25
2022-08-22T06:44:27.700Z,24.33
2022-08-22T06:46:58.407Z,24.44
2022-08-22T06:49:26.809Z,24.53
2022-08-22T06:51:57.421Z,24.49
2022-08-22T06:54:28.671Z,24.59
2022-08-22T06:56:59.087Z,24.63
2022-08-22T06:59:29.094Z,24.78
2022-08-22T07:02:04.191Z,24.92
2022-08-22T07:04:31.761Z,24.97
2022-08-22T07:07:00.716Z,24.99
2022-08-22T07:09:28.180Z,24.97
2022-08-22T07:11:57.678Z,25.10
2022-08-22T07:14:27.304Z,25.05
2022-08-22T07:16:57.247Z,25.20
2022-08-22T07:19:29.901Z,25.26
2022-08-22T07:21:58.088Z,25.32
2022-08-22T07:24:28.238Z,25.32
2022-08-22T07:26:58.408Z,25.39
2022-08-22T07:29:30.012Z,25.51
2022-08-22T07:31:59.723Z,25.58
2022-08-22T07:34:41.916Z,25.69
2022-08-22T07:37:38.774Z,25.77
2022-08-22T07:40:24.902Z,25.81
2022-08-22T07:42:52.131Z,25.90
2022-08-22T07:45:33.520Z,25.97
2022-08-22T07:48:30.308Z,26.03
2022-08-22T07:51:03.711Z,26.12
2022-08-22T07:53:49.492Z,25.90
2022-08-22T07:56:21.240Z,25.85
2022-08-22T07:58:52.684Z,26.00
2022-08-22T08:01:21.658Z,26.16
2022-08-22T08:03:53.625Z,26.28
2022-08-22T08:06:23.184Z,26.21
2022-08-22T08:08:51.763Z,26.22
2022-08-22T08:11:21.652Z,26.32
2022-08-22T08:13:53.085Z,26.33
2022-08-22T08:16:23.042Z,26.43
2022-08-22T08:18:52.761Z,26.49
2022-08-22T08:21:29.028Z,26.61
2022-08-22T08:23:57.080Z,26.65
2022-08-22T08:26:31.105Z,26.72
2022-08-22T08:28:59.460Z,26.88
2022-08-22T08:31:32.821Z,26.92
2022-08-22T08:34:05.189Z,27.01
2022-08-22T08:36:47.685Z,27.14
2022-08-22T08:39:18.405Z,27.45
2022-08-22T08:41:54.682Z,27.74
2022-08-22T08:44:40.272Z,27.92
2022-08-22T08:47:26.104Z,27.79
2022-08-22T08:49:53.261Z,27.76
2022-08-22T08:52:20.424Z,28.00
2022-08-22T08:54:55.567Z,28.17
2022-08-22T08:57:41.117Z,28.44
2022-08-22T09:00:17.085Z,28.50
2022-08-22T09:03:09.962Z,28.38
2022-08-22T09:05:56.539Z,28.41
2022-08-22T09:08:24.747Z,29.12
2022-08-22T09:10:57.960Z,30.18
2022-08-22T09:13:25.191Z,30.97
2022-08-22T09:16:13.182Z,30.51
2022-08-22T09:18:46.239Z,30.41
2022-08-22T09:21:31.525Z,30.82
2022-08-22T09:24:17.723Z,31.82
2022-08-22T09:26:46.569Z,31.73
2022-08-22T09:29:33.046Z,32.65
2022-08-22T09:32:23.800Z,34.14
2022-08-22T09:34:57.804Z,32.72
2022-08-22T09:37:32.176Z,31.58
2022-08-22T09:40:04.624Z,30.94
2022-08-22T09:42:35.248Z,30.48
2022-08-22T09:45:11.798Z,29.77
2022-08-22T09:47:46.963Z,29.75
2022-08-22T09:50:19.941Z,29.70
2022-08-22T09:52:47.169Z,29.77
2022-08-22T09:55:35.594Z,29.34
2022-08-22T09:58:16.279Z,29.16
2022-08-22T10:00:54.682Z,29.31
2022-08-22T10:03:28.701Z,29.41
2022-08-22T10:06:01.194Z,29.22
2022-08-22T10:08:31.442Z,29.29
2022-08-22T10:11:13.992Z,29.39
2022-08-22T10:13:57.553Z,29.15
2022-08-22T10:16:37.042Z,29.16
2022-08-22T10:19:18.024Z,28.75
2022-08-22T10:21:51.381Z,28.91
2022-08-22T10:24:25.082Z,28.94
2022-08-22T10:26:54.566Z,29.07
2022-08-22T10:29:38.256Z,29.15
2022-08-22T10:32:27.113Z,29.21
2022-08-22T10:34:56.880Z,29.25
2022-08-22T10:37:30.655Z,29.14
2022-08-22T10:40:10.891Z,29.06
2022-08-22T10:42:47.303Z,29.05
2022-08-22T10:45:36.126Z,29.15
2022-08-22T10:48:39.433Z,29.19
2022-08-22T10:51:08.803Z,29.14
2022-08-22T10:53:43.861Z,29.14
2022-08-22T10:56:13.833Z,29.12
2022-08-22T10:58:55.550Z,29.18
2022-08-22T11:01:38.426Z,29.18
2022-08-22T11:04:15.146Z,29.09
2022-08-22T11:06:46.891Z,29.05
2022-08-22T11:09:37.131Z,29.08
2022-08-22T11:12:35.039Z,29.01
2022-08-22T11:15:24.138Z,29.11
2022-08-22T11:18:16.940Z,29.15
2022-08-22T11:20:44.130Z,29.19
2022-08-22T11:23:35.900Z,29.21
2022-08-22T11:26:13.439Z,29.29
2022-08-22T11:28:52.871Z,29.27
2022-08-22T11:31:31.665Z,29.31
2022-08-22T11:34:30.314Z,29.11
2022-08-22T11:37:23.756Z,29.13
2022-08-22T11:40:20.809Z,29.24
2022-08-22T11:43:20.481Z,29.30
2022-08-22T11:45:48.977Z,29.08
2022-08-22T11:48:22.217Z,29.12
2022-08-22T11:51:13.218Z,29.23
2022-08-22T11:53:50.964Z,29.16
2022-08-22T11:56:32.856Z,29.21
2022-08-22T11:59:07.367Z,29.20
2022-08-22T12:01:41.749Z,29.25
2022-08-22T12:04:12.758Z,29.30
2022-08-22T12:06:59.014Z,29.34
2022-08-22T12:09:44.823Z,29.41
2022-08-22T12:12:26.207Z,29.43
2022-08-22T12:14:54.681Z,29.53
2022-08-22T12:17:56.053Z,29.61
2022-08-22T12:20:45.551Z,29.65
2022-08-22T12:23:18.796Z,29.66
2022-08-22T12:26:10.947Z,29.61
2022-08-22T12:28:43.342Z,29.62
2022-08-22T12:31:19.777Z,29.68
2022-08-22T12:34:06.570Z,29.70
2022-08-22T12:36:52.044Z,29.71
2022-08-22T12:39:24.425Z,29.68
2022-08-22T12:42:04.187Z,29.72
2022-08-22T12:44:41.332Z,29.74
2022-08-22T12:47:18.888Z,29.77
2022-08-22T12:49:57.545Z,29.72
2022-08-22T12:52:28.101Z,29.72
2022-08-22T12:55:04.472Z,29.60
2022-08-22T12:57:54.192Z,29.64
2022-08-22T13:00:22.965Z,29.67
2022-08-22T13:02:54.764Z,29.73
2022-08-22T13:05:24.740Z,29.74
2022-08-22T13:07:55.785Z,29.75
2022-08-22T13:10:33.203Z,29.84
2022-08-22T13:13:01.159Z,29.83
2022-08-22T13:15:53.471Z,29.87
2022-08-22T13:18:30.511Z,29.84
2022-08-22T13:21:00.990Z,29.77
2022-08-22T13:23:31.768Z,29.78
2022-08-22T13:26:10.567Z,29.74
2022-08-22T13:28:44.661Z,29.72
2022-08-22T13:31:40.196Z,29.71
2022-08-22T13:34:13.296Z,29.79
2022-08-22T13:36:51.637Z,29.81
2022-08-22T13:39:25.964Z,29.83
2022-08-22T13:41:55.454Z,29.82
2022-08-22T13:44:32.187Z,29.80
2022-08-22T13:47:14.368Z,29.76
2022-08-22T13:49:46.868Z,29.71
2022-08-22T13:52:29.969Z,29.70
2022-08-22T13:55:00.735Z,29.67
2022-08-22T13:57:31.484Z,29.69
2022-08-22T14:00:06.925Z,29.72
2022-08-22T14:02:53.413Z,29.72
2022-08-22T14:05:41.345Z,29.69
2022-08-22T14:08:14.464Z,29.72
2022-08-22T14:10:52.195Z,29.74
2022-08-22T14:13:32.010Z,29.74
2022-08-22T14:16:03.416Z,29.79
2022-08-22T14:18:36.447Z,29.77
2022-08-22T14:21:19.044Z,29.67
2022-08-22T14:23:50.084Z,29.67
2022-08-22T14:26:32.823Z,29.66
2022-08-22T14:29:06.873Z,29.68
2022-08-22T14:31:36.043Z,29.64
2022-08-22T14:34:10.360Z,29.66
2022-08-22T14:36:44.379Z,29.62
2022-08-22T14:39:21.010Z,29.67
2022-08-22T14:42:10.036Z,29.68
2022-08-22T14:44:59.143Z,29.69
2022-08-22T14:47:54.130Z,29.72
2022-08-22T14:50:32.158Z,29.72
2022-08-22T14:53:25.547Z,29.69
2022-08-22T14:55:55.823Z,29.64
2022-08-22T14:58:26.527Z,29.61
2022-08-22T15:00:56.348Z,29.59
2022-08-22T15:03:26.316Z,29.59
2022-08-22T15:05:54.196Z,29.60
2022-08-22T15:08:24.384Z,29.59
2022-08-22T15:11:25.186Z,29.59
2022-08-22T15:13:55.737Z,29.58
2022-08-22T15:16:49.679Z,29.59
2022-08-22T15:19:25.541Z,29.58
2022-08-22T15:22:07.851Z,29.57
2022-08-22T15:24:40.083Z,29.51
2022-08-22T15:27:10.433Z,29.49
2022-08-22T15:29:48.361Z,29.47
2022-08-22T15:32:19.811Z,29.43
2022-08-22T15:34:52.553Z,29.45
2022-08-22T15:37:19.824Z,29.46
2022-08-22T15:39:59.257Z,29.49
2022-08-22T15:42:30.738Z,29.48
2022-08-22T15:44:59.163Z,29.46
2022-08-22T15:47:41.637Z,29.44
2022-08-22T15:50:15.432Z,29.44
2022-08-22T15:53:05.209Z,29.43
2022-08-22T15:55:35.549Z,29.41
2022-08-22T15:58:13.017Z,29.41
2022-08-22T16:00:45.207Z,29.43
2022-08-22T16:03:26.979Z,29.41
2022-08-22T16:05:59.466Z,29.39
2022-08-22T16:08:33.077Z,29.38
2022-08-22T16:11:03.853Z,29.34
2022-08-22T16:13:31.293Z,29.32
2022-08-22T16:16:04.354Z,29.29
2022-08-22T16:18:34.488Z,29.29
2022-08-22T16:21:05.067Z,29.29
2022-08-22T16:23:50.931Z,29.29
2022-08-22T16:26:21.032Z,29.25
2022-08-22T16:29:20.840Z,29.22
2022-08-22T16:31:48.357Z,29.20
2022-08-22T16:34:15.745Z,29.21
2022-08-22T16:36:48.831Z,29.18
2022-08-22T16:39:22.550Z,29.18
2022-08-22T16:41:55.151Z,29.17
2022-08-22T16:44:28.559Z,29.14
2022-08-22T16:47:16.004Z,29.12
2022-08-22T16:49:49.179Z,29.08
2022-08-22T16:52:25.924Z,29.05
2022-08-22T16:54:53.292Z,29.02
2022-08-22T16:57:24.358Z,29.01
2022-08-22T17:00:11.239Z,28.98
2022-08-22T17:02:57.144Z,28.95
2022-08-22T17:05:36.882Z,28.96
2022-08-22T17:08:25.144Z,28.94
2022-08-22T17:10:57.552Z,28.92
2022-08-22T17:13:26.312Z,28.90
2022-08-22T17:16:02.032Z,28.88
2022-08-22T17:18:29.249Z,28.87
2022-08-22T17:21:12.385Z,28.87
2022-08-22T17:23:58.487Z,28.85
2022-08-22T17:26:28.814Z,28.80
2022-08-22T17:28:56.086Z,28.76
2022-08-22T17:31:26.509Z,28.71
2022-08-22T17:34:12.693Z,28.68
2022-08-22T17:36:58.622Z,28.65
2022-08-22T17:39:37.442Z,28.58
2022-08-22T17:42:23.493Z,28.54
2022-08-22T17:44:50.675Z,28.48
2022-08-22T17:47:19.996Z,28.43
2022-08-22T17:49:53.945Z,28.41
2022-08-22T17:52:41.125Z,28.35
2022-08-22T17:55:14.077Z,28.31
2022-08-22T17:57:44.342Z,28.27
2022-08-22T18:00:26.087Z,28.24
2022-08-22T18:03:13.530Z,28.19
2022-08-22T18:06:01.229Z,28.14
2022-08-22T18:11:30.226Z,28.03
2022-08-22T18:14:21.405Z,27.98
2022-08-22T18:16:52.223Z,27.95
2022-08-22T18:19:38.092Z,27.94
2022-08-22T18:22:13.210Z,27.91
2022-08-22T18:24:51.078Z,27.85
2022-08-22T18:27:34.297Z,27.77
2022-08-22T18:30:14.396Z,27.77
2022-08-22T18:32:41.681Z,27.74
2022-08-22T18:35:22.902Z,27.71
2022-08-22T18:37:54.856Z,27.63
2022-08-22T18:40:28.629Z,27.65
2022-08-22T18:42:58.913Z,27.69
2022-08-22T18:45:44.819Z,27.69
2022-08-22T18:48:36.933Z,27.66
2022-08-22T18:51:24.615Z,27.66
2022-08-22T18:54:02.217Z,27.64
2022-08-22T18:56:41.974Z,27.62
2022-08-22T18:59:09.137Z,27.56
2022-08-22T19:02:01.279Z,27.54
2022-08-22T19:04:34.606Z,27.54
2022-08-22T19:07:12.284Z,27.50
2022-08-22T19:09:58.174Z,27.49
2022-08-22T19:12:44.091Z,27.48
2022-08-22T19:15:17.765Z,27.48
2022-08-22T19:17:59.201Z,27.39
2022-08-22T19:21:03.676Z,27.38
2022-08-22T19:23:37.479Z,27.38
2022-08-22T19:26:23.389Z,27.45
2022-08-22T19:28:51.492Z,27.42
2022-08-22T19:31:18.767Z,27.38
2022-08-22T19:33:48.345Z,27.32
2022-08-22T19:36:36.189Z,27.40
2022-08-22T19:39:08.863Z,27.38
2022-08-22T19:41:36.557Z,27.46
2022-08-22T19:44:03.972Z,27.34
2022-08-22T19:46:39.440Z,27.33
2022-08-22T19:49:21.009Z,27.42
2022-08-22T19:51:59.672Z,27.37
2022-08-22T19:54:27.248Z,27.36
2022-08-22T19:57:14.814Z,27.35
2022-08-22T20:00:00.260Z,27.34
2022-08-22T20:02:37.980Z,27.29
2022-08-22T20:05:28.865Z,27.22
2022-08-22T20:07:56.193Z,27.07
2022-08-22T20:10:47.088Z,27.02
2022-08-22T20:13:25.394Z,26.81
2022-08-22T20:16:13.332Z,26.71
2022-08-22T20:19:00.150Z,26.74
2022-08-22T20:21:51.054Z,26.66
2022-08-22T20:24:21.125Z,26.60
2022-08-22T20:27:12.159Z,26.59
2022-08-22T20:29:39.771Z,26.63
2022-08-22T20:32:07.015Z,26.55
2022-08-22T20:34:38.117Z,26.56
2022-08-22T20:37:35.831Z,26.43
2022-08-22T20:40:08.118Z,26.39
2022-08-22T20:42:54.861Z,26.48
2022-08-22T20:45:25.143Z,26.47
2022-08-22T20:47:56.885Z,26.49
2022-08-22T20:50:25.944Z,26.48
2022-08-22T20:53:11.452Z,26.50
2022-08-22T20:55:38.705Z,26.55
2022-08-22T20:58:17.973Z,26.59
2022-08-22T21:00:48.362Z,26.67
2022-08-22T21:03:27.346Z,26.67
2022-08-22T21:05:54.626Z,26.57
2022-08-22T21:08:24.285Z,26.51
2022-08-22T21:11:17.247Z,26.44
2022-08-22T21:13:44.888Z,26.43
2022-08-22T21:16:16.540Z,26.37
2022-08-22T21:18:52.077Z,26.40
2022-08-22T21:21:26.763Z,26.38
2022-08-22T21:23:59.929Z,26.41
2022-08-22T21:26:34.026Z,26.45
2022-08-22T21:29:01.256Z,26.35
2022-08-22T21:31:30.285Z,26.30
2022-08-22T21:33:57.740Z,26.25
2022-08-22T21:36:27.567Z,26.23
2022-08-22T21:38:59.948Z,26.24
2022-08-22T21:41:42.277Z,26.30
2022-08-22T21:44:27.647Z,26.28
2022-08-22T21:46:55.366Z,26.29
2022-08-22T21:49:29.291Z,26.26
2022-08-22T21:51:56.507Z,26.16
2022-08-22T21:54:29.721Z,26.21
2022-08-22T21:56:58.387Z,26.21
2022-08-22T21:59:25.670Z,26.22
2022-08-22T22:01:55.797Z,26.12
2022-08-22T22:04:23.027Z,26.11
2022-08-22T22:06:50.273Z,26.06
2022-08-22T22:09:17.516Z,26.00
2022-08-22T22:11:44.721Z,25.88
2022-08-22T22:14:11.962Z,25.85
2022-08-22T22:16:39.280Z,25.80
2022-08-22T22:19:07.773Z,25.82
2022-08-22T22:21:35.187Z,25.78
2022-08-22T22:24:02.604Z,25.72
2022-08-22T22:26:30.816Z,25.76
2022-08-22T22:28:59.151Z,25.79
2022-08-22T22:31:26.487Z,25.64
2022-08-22T22:33:54.065Z,25.50
2022-08-22T22:36:23.669Z,25.43
2022-08-22T22:38:52.051Z,25.36
2022-08-22T22:41:20.394Z,25.46
2022-08-22T22:43:47.618Z,25.30
2022-08-22T22:46:14.885Z,25.27
2022-08-22T22:48:42.258Z,25.34
2022-08-22T22:51:10.751Z,25.29
2022-08-22T22:53:40.314Z,25.14
2022-08-22T22:56:12.330Z,25.10
2022-08-22T22:58:39.673Z,25.03
2022-08-22T23:01:09.851Z,24.99
2022-08-22T23:03:37.274Z,24.95
2022-08-22T23:06:04.843Z,24.90
2022-08-22T23:08:32.122Z,24.87
2022-08-22T23:10:59.518Z,24.85
2022-08-22T23:13:26.724Z,24.84
2022-08-22T23:15:53.937Z,24.80
2022-08-22T23:18:21.176Z,24.81
2022-08-22T23:20:57.629Z,24.74
2022-08-22T23:23:25.393Z,24.67
2022-08-22T23:25:52.613Z,24.59
2022-08-22T23:28:19.869Z,24.61
2022-08-22T23:30:47.034Z,24.65
2022-08-22T23:33:15.072Z,24.61
2022-08-22T23:35:42.262Z,24.54
2022-08-22T23:38:09.523Z,24.47
2022-08-22T23:40:36.717Z,24.44
2022-08-22T23:43:04.367Z,24.43
2022-08-22T23:45:31.619Z,24.37
2022-08-22T23:47:58.989Z,24.28
2022-08-22T23:50:26.308Z,24.21
2022-08-22T23:52:53.538Z,24.17
2022-08-22T23:55:20.813Z,24.13
2022-08-22T23:57:48.128Z,24.15
